sensor_id;sensor_type;location;lat;lon;timestamp;temperature;humidity
1996;DHT22;38556;47.068;15.408;2023-11-19T00:02:21;8.00;66.40
1996;DHT22;38556;47.068;15.408;2023-11-19T00:04:49;7.60;69.60
1996;DHT22;38556;47.068;15.408;2023-11-19T00:09:44;6.90;70.30
1996;DHT22;38556;47.068;15.408;2023-11-19T00:12:11;6.40;72.40
1996;DHT22;38556;47.068;15.408;2023-11-19T00:14:39;5.70;74.40
1996;DHT22;38556;47.068;15.408;2023-11-19T00:19:34;6.10;74.40
1996;DHT22;38556;47.068;15.408;2023-11-19T00:22:03;5.90;74.30
1996;DHT22;38556;47.068;15.408;2023-11-19T00:24:30;5.70;75.50
1996;DHT22;38556;47.068;15.408;2023-11-19T00:34:21;6.80;73.50
1996;DHT22;38556;47.068;15.408;2023-11-19T00:36:48;7.00;73.00
1996;DHT22;38556;47.068;15.408;2023-11-19T00:39:17;6.90;72.70
1996;DHT22;38556;47.068;15.408;2023-11-19T00:41:46;6.80;73.10
1996;DHT22;38556;47.068;15.408;2023-11-19T00:44:14;6.80;73.30
1996;DHT22;38556;47.068;15.408;2023-11-19T00:49:09;7.60;72.00
1996;DHT22;38556;47.068;15.408;2023-11-19T00:51:38;7.70;71.40
1996;DHT22;38556;47.068;15.408;2023-11-19T00:54:05;7.70;71.50
1996;DHT22;38556;47.068;15.408;2023-11-19T00:56:34;7.90;71.10
1996;DHT22;38556;47.068;15.408;2023-11-19T00:59:03;8.20;70.10
1996;DHT22;38556;47.068;15.408;2023-11-19T01:01:30;8.40;69.90
1996;DHT22;38556;47.068;15.408;2023-11-19T01:03:57;8.50;69.80
1996;DHT22;38556;47.068;15.408;2023-11-19T01:06:29;8.40;69.50
1996;DHT22;38556;47.068;15.408;2023-11-19T01:11:25;8.50;68.40
1996;DHT22;38556;47.068;15.408;2023-11-19T01:13:54;8.50;68.60
1996;DHT22;38556;47.068;15.408;2023-11-19T01:16:21;8.60;67.90
1996;DHT22;38556;47.068;15.408;2023-11-19T01:18:49;8.40;67.60
1996;DHT22;38556;47.068;15.408;2023-11-19T01:21:17;8.40;67.20
1996;DHT22;38556;47.068;15.408;2023-11-19T01:23:44;8.30;66.50
1996;DHT22;38556;47.068;15.408;2023-11-19T01:26:12;8.20;67.10
1996;DHT22;38556;47.068;15.408;2023-11-19T01:28:39;8.30;67.00
1996;DHT22;38556;47.068;15.408;2023-11-19T01:31:15;8.40;66.40
1996;DHT22;38556;47.068;15.408;2023-11-19T01:33:42;8.50;66.40
1996;DHT22;38556;47.068;15.408;2023-11-19T01:36:13;8.70;66.10
1996;DHT22;38556;47.068;15.408;2023-11-19T01:38:40;8.30;66.60
1996;DHT22;38556;47.068;15.408;2023-11-19T01:41:08;8.20;66.90
1996;DHT22;38556;47.068;15.408;2023-11-19T01:43:36;7.80;67.10
1996;DHT22;38556;47.068;15.408;2023-11-19T01:46:05;8.10;67.10
1996;DHT22;38556;47.068;15.408;2023-11-19T01:48:39;8.10;67.60
1996;DHT22;38556;47.068;15.408;2023-11-19T01:51:08;8.30;66.90
1996;DHT22;38556;47.068;15.408;2023-11-19T01:53:37;8.30;66.80
1996;DHT22;38556;47.068;15.408;2023-11-19T01:56:08;7.80;67.50
1996;DHT22;38556;47.068;15.408;2023-11-19T01:58:36;7.80;68.50
1996;DHT22;38556;47.068;15.408;2023-11-19T02:01:05;7.90;68.90
1996;DHT22;38556;47.068;15.408;2023-11-19T02:03:33;7.10;70.00
1996;DHT22;38556;47.068;15.408;2023-11-19T02:08:30;7.40;69.80
1996;DHT22;38556;47.068;15.408;2023-11-19T02:10:58;7.30;69.80
1996;DHT22;38556;47.068;15.408;2023-11-19T02:13:27;6.90;70.70
1996;DHT22;38556;47.068;15.408;2023-11-19T02:15:55;6.30;72.90
1996;DHT22;38556;47.068;15.408;2023-11-19T02:18:24;5.60;75.90
1996;DHT22;38556;47.068;15.408;2023-11-19T02:20:53;5.20;78.20
1996;DHT22;38556;47.068;15.408;2023-11-19T02:23:23;5.40;77.60
1996;DHT22;38556;47.068;15.408;2023-11-19T02:26:07;5.70;77.00
1996;DHT22;38556;47.068;15.408;2023-11-19T02:28:37;5.90;76.20
1996;DHT22;38556;47.068;15.408;2023-11-19T02:31:04;6.30;75.70
1996;DHT22;38556;47.068;15.408;2023-11-19T02:33:35;6.70;74.40
1996;DHT22;38556;47.068;15.408;2023-11-19T02:36:04;6.80;74.20
1996;DHT22;38556;47.068;15.408;2023-11-19T02:38:32;6.70;74.20
1996;DHT22;38556;47.068;15.408;2023-11-19T02:41:03;6.30;75.40
1996;DHT22;38556;47.068;15.408;2023-11-19T02:43:31;6.30;75.70
1996;DHT22;38556;47.068;15.408;2023-11-19T02:46:02;6.60;75.60
1996;DHT22;38556;47.068;15.408;2023-11-19T02:48:32;6.80;75.30
1996;DHT22;38556;47.068;15.408;2023-11-19T02:51:01;7.20;74.60
1996;DHT22;38556;47.068;15.408;2023-11-19T02:53:29;7.50;73.90
1996;DHT22;38556;47.068;15.408;2023-11-19T02:55:56;7.50;73.40
1996;DHT22;38556;47.068;15.408;2023-11-19T02:58:28;7.70;73.30
1996;DHT22;38556;47.068;15.408;2023-11-19T03:00:55;7.80;72.70
1996;DHT22;38556;47.068;15.408;2023-11-19T03:03:27;7.70;73.00
1996;DHT22;38556;47.068;15.408;2023-11-19T03:06:05;7.70;73.60
1996;DHT22;38556;47.068;15.408;2023-11-19T03:10:59;7.80;73.20
1996;DHT22;38556;47.068;15.408;2023-11-19T03:13:27;7.80;73.20
1996;DHT22;38556;47.068;15.408;2023-11-19T03:15:54;7.80;73.00
1996;DHT22;38556;47.068;15.408;2023-11-19T03:18:22;7.80;73.10
1996;DHT22;38556;47.068;15.408;2023-11-19T03:20:52;7.30;73.70
1996;DHT22;38556;47.068;15.408;2023-11-19T03:25:47;7.50;73.90
1996;DHT22;38556;47.068;15.408;2023-11-19T03:28:14;7.70;73.20
1996;DHT22;38556;47.068;15.408;2023-11-19T03:33:10;7.90;72.90
1996;DHT22;38556;47.068;15.408;2023-11-19T03:38:08;7.80;73.40
1996;DHT22;38556;47.068;15.408;2023-11-19T03:40:35;8.00;73.00
1996;DHT22;38556;47.068;15.408;2023-11-19T03:43:04;7.90;73.20
1996;DHT22;38556;47.068;15.408;2023-11-19T03:45:31;7.80;73.90
1996;DHT22;38556;47.068;15.408;2023-11-19T03:50:26;6.60;77.30
1996;DHT22;38556;47.068;15.408;2023-11-19T03:55:22;6.40;77.70
1996;DHT22;38556;47.068;15.408;2023-11-19T03:57:50;6.60;77.60
1996;DHT22;38556;47.068;15.408;2023-11-19T04:00:17;6.50;76.90
1996;DHT22;38556;47.068;15.408;2023-11-19T04:02:46;6.00;77.70
1996;DHT22;38556;47.068;15.408;2023-11-19T04:05:14;6.00;79.10
1996;DHT22;38556;47.068;15.408;2023-11-19T04:07:41;5.90;78.80
1996;DHT22;38556;47.068;15.408;2023-11-19T04:10:09;6.20;78.60
1996;DHT22;38556;47.068;15.408;2023-11-19T04:12:38;6.60;77.50
1996;DHT22;38556;47.068;15.408;2023-11-19T04:15:06;5.90;77.40
1996;DHT22;38556;47.068;15.408;2023-11-19T04:17:34;6.30;78.20
1996;DHT22;38556;47.068;15.408;2023-11-19T04:20:01;6.30;78.50
1996;DHT22;38556;47.068;15.408;2023-11-19T04:22:30;6.10;78.70
1996;DHT22;38556;47.068;15.408;2023-11-19T04:24:57;5.50;79.90
1996;DHT22;38556;47.068;15.408;2023-11-19T04:27:24;5.70;80.30
1996;DHT22;38556;47.068;15.408;2023-11-19T04:29:53;5.90;79.60
1996;DHT22;38556;47.068;15.408;2023-11-19T04:32:20;6.00;79.00
1996;DHT22;38556;47.068;15.408;2023-11-19T04:34:48;5.80;80.20
1996;DHT22;38556;47.068;15.408;2023-11-19T04:39:44;6.30;79.50
1996;DHT22;38556;47.068;15.408;2023-11-19T04:42:11;6.80;78.50
1996;DHT22;38556;47.068;15.408;2023-11-19T04:47:12;7.40;76.70
1996;DHT22;38556;47.068;15.408;2023-11-19T04:49:40;7.10;77.00
1996;DHT22;38556;47.068;15.408;2023-11-19T04:52:09;7.20;77.20
1996;DHT22;38556;47.068;15.408;2023-11-19T04:54:41;7.60;76.80
1996;DHT22;38556;47.068;15.408;2023-11-19T04:59:37;7.70;75.30
1996;DHT22;38556;47.068;15.408;2023-11-19T05:02:05;7.80;75.00
1996;DHT22;38556;47.068;15.408;2023-11-19T05:04:34;7.90;74.80
1996;DHT22;38556;47.068;15.408;2023-11-19T05:07:03;7.90;74.60
1996;DHT22;38556;47.068;15.408;2023-11-19T05:09:31;8.00;74.60
1996;DHT22;38556;47.068;15.408;2023-11-19T05:11:58;8.10;74.30
1996;DHT22;38556;47.068;15.408;2023-11-19T05:14:25;8.20;73.80
1996;DHT22;38556;47.068;15.408;2023-11-19T05:16:53;8.00;73.60
1996;DHT22;38556;47.068;15.408;2023-11-19T05:19:20;8.00;73.50
1996;DHT22;38556;47.068;15.408;2023-11-19T05:21:49;8.10;73.20
1996;DHT22;38556;47.068;15.408;2023-11-19T05:24:18;8.10;73.00
1996;DHT22;38556;47.068;15.408;2023-11-19T05:26:46;8.20;72.90
1996;DHT22;38556;47.068;15.408;2023-11-19T05:29:13;8.20;73.10
1996;DHT22;38556;47.068;15.408;2023-11-19T05:31:40;8.20;72.60
1996;DHT22;38556;47.068;15.408;2023-11-19T05:34:08;8.10;72.80
1996;DHT22;38556;47.068;15.408;2023-11-19T05:36:35;8.10;72.90
1996;DHT22;38556;47.068;15.408;2023-11-19T05:39:04;8.10;72.70
1996;DHT22;38556;47.068;15.408;2023-11-19T05:41:32;8.10;72.90
1996;DHT22;38556;47.068;15.408;2023-11-19T05:43:59;8.10;73.30
1996;DHT22;38556;47.068;15.408;2023-11-19T05:46:27;7.80;73.90
1996;DHT22;38556;47.068;15.408;2023-11-19T05:48:54;7.80;74.20
1996;DHT22;38556;47.068;15.408;2023-11-19T05:51:21;7.80;73.80
1996;DHT22;38556;47.068;15.408;2023-11-19T05:53:49;7.90;73.90
1996;DHT22;38556;47.068;15.408;2023-11-19T05:56:18;8.00;73.30
1996;DHT22;38556;47.068;15.408;2023-11-19T06:01:16;8.20;73.30
1996;DHT22;38556;47.068;15.408;2023-11-19T06:03:43;8.20;73.00
1996;DHT22;38556;47.068;15.408;2023-11-19T06:06:15;8.20;72.80
1996;DHT22;38556;47.068;15.408;2023-11-19T06:08:42;8.20;73.20
1996;DHT22;38556;47.068;15.408;2023-11-19T06:13:41;8.10;74.10
1996;DHT22;38556;47.068;15.408;2023-11-19T06:18:38;8.20;73.10
1996;DHT22;38556;47.068;15.408;2023-11-19T06:21:06;8.20;73.20
1996;DHT22;38556;47.068;15.408;2023-11-19T06:28:28;8.20;73.40
1996;DHT22;38556;47.068;15.408;2023-11-19T06:30:57;8.20;73.40
1996;DHT22;38556;47.068;15.408;2023-11-19T06:33:24;8.00;74.00
1996;DHT22;38556;47.068;15.408;2023-11-19T06:35:53;7.80;74.50
1996;DHT22;38556;47.068;15.408;2023-11-19T06:38:20;7.60;74.80
1996;DHT22;38556;47.068;15.408;2023-11-19T06:40:48;7.70;75.10
1996;DHT22;38556;47.068;15.408;2023-11-19T06:45:44;8.10;74.20
1996;DHT22;38556;47.068;15.408;2023-11-19T06:48:12;8.30;73.60
1996;DHT22;38556;47.068;15.408;2023-11-19T06:53:07;8.40;73.20
1996;DHT22;38556;47.068;15.408;2023-11-19T06:58:05;8.30;72.70
1996;DHT22;38556;47.068;15.408;2023-11-19T07:00:33;8.40;72.70
1996;DHT22;38556;47.068;15.408;2023-11-19T07:03:01;8.40;72.60
1996;DHT22;38556;47.068;15.408;2023-11-19T07:05:30;8.50;72.80
1996;DHT22;38556;47.068;15.408;2023-11-19T07:07:58;8.60;72.50
1996;DHT22;38556;47.068;15.408;2023-11-19T07:10:25;8.60;72.40
1996;DHT22;38556;47.068;15.408;2023-11-19T07:12:52;8.60;72.20
1996;DHT22;38556;47.068;15.408;2023-11-19T07:15:19;8.50;72.70
1996;DHT22;38556;47.068;15.408;2023-11-19T07:17:46;8.20;73.70
1996;DHT22;38556;47.068;15.408;2023-11-19T07:22:44;8.20;74.10
1996;DHT22;38556;47.068;15.408;2023-11-19T07:25:13;8.30;73.90
1996;DHT22;38556;47.068;15.408;2023-11-19T07:27:40;8.40;73.60
1996;DHT22;38556;47.068;15.408;2023-11-19T07:30:09;8.40;73.40
1996;DHT22;38556;47.068;15.408;2023-11-19T07:32:36;8.50;73.40
1996;DHT22;38556;47.068;15.408;2023-11-19T07:35:05;8.60;73.40
1996;DHT22;38556;47.068;15.408;2023-11-19T07:37:33;8.40;73.50
1996;DHT22;38556;47.068;15.408;2023-11-19T07:40:02;8.20;74.20
1996;DHT22;38556;47.068;15.408;2023-11-19T07:42:30;7.30;75.90
1996;DHT22;38556;47.068;15.408;2023-11-19T07:44:58;7.10;76.70
1996;DHT22;38556;47.068;15.408;2023-11-19T07:47:25;7.50;76.20
1996;DHT22;38556;47.068;15.408;2023-11-19T07:49:54;7.60;75.70
1996;DHT22;38556;47.068;15.408;2023-11-19T07:52:22;7.20;76.40
1996;DHT22;38556;47.068;15.408;2023-11-19T07:54:49;7.20;76.80
1996;DHT22;38556;47.068;15.408;2023-11-19T07:57:18;7.10;76.80
1996;DHT22;38556;47.068;15.408;2023-11-19T08:02:13;6.90;77.90
1996;DHT22;38556;47.068;15.408;2023-11-19T08:04:40;6.90;77.90
1996;DHT22;38556;47.068;15.408;2023-11-19T08:09:38;7.70;76.40
1996;DHT22;38556;47.068;15.408;2023-11-19T08:12:06;8.00;75.90
1996;DHT22;38556;47.068;15.408;2023-11-19T08:14:35;8.20;75.50
1996;DHT22;38556;47.068;15.408;2023-11-19T08:17:03;8.20;75.40
1996;DHT22;38556;47.068;15.408;2023-11-19T08:19:31;8.10;75.40
1996;DHT22;38556;47.068;15.408;2023-11-19T08:21:58;8.30;75.50
1996;DHT22;38556;47.068;15.408;2023-11-19T08:24:25;8.20;75.60
1996;DHT22;38556;47.068;15.408;2023-11-19T08:26:53;7.90;75.50
1996;DHT22;38556;47.068;15.408;2023-11-19T08:29:21;7.80;76.40
1996;DHT22;38556;47.068;15.408;2023-11-19T08:31:50;8.00;76.70
1996;DHT22;38556;47.068;15.408;2023-11-19T08:36:45;8.20;75.40
1996;DHT22;38556;47.068;15.408;2023-11-19T08:39:12;8.00;76.20
1996;DHT22;38556;47.068;15.408;2023-11-19T08:41:40;8.00;76.90
1996;DHT22;38556;47.068;15.408;2023-11-19T08:44:07;8.40;84.60
1996;DHT22;38556;47.068;15.408;2023-11-19T08:46:35;8.70;83.50
1996;DHT22;38556;47.068;15.408;2023-11-19T08:49:03;9.10;80.80
1996;DHT22;38556;47.068;15.408;2023-11-19T08:51:31;9.50;77.50
1996;DHT22;38556;47.068;15.408;2023-11-19T08:53:59;9.00;76.70
1996;DHT22;38556;47.068;15.408;2023-11-19T08:56:26;9.30;75.80
1996;DHT22;38556;47.068;15.408;2023-11-19T08:58:57;8.50;77.10
1996;DHT22;38556;47.068;15.408;2023-11-19T09:01:25;7.80;77.50
1996;DHT22;38556;47.068;15.408;2023-11-19T09:03:52;8.20;78.50
1996;DHT22;38556;47.068;15.408;2023-11-19T09:06:21;8.30;77.60
1996;DHT22;38556;47.068;15.408;2023-11-19T09:08:48;8.60;77.30
1996;DHT22;38556;47.068;15.408;2023-11-19T09:11:16;8.90;76.70
1996;DHT22;38556;47.068;15.408;2023-11-19T09:13:43;8.90;76.00
1996;DHT22;38556;47.068;15.408;2023-11-19T09:16:12;8.70;75.70
1996;DHT22;38556;47.068;15.408;2023-11-19T09:18:39;8.40;77.50
1996;DHT22;38556;47.068;15.408;2023-11-19T09:21:06;8.00;77.50
1996;DHT22;38556;47.068;15.408;2023-11-19T09:23:35;8.30;78.40
1996;DHT22;38556;47.068;15.408;2023-11-19T09:26:05;8.40;78.20
1996;DHT22;38556;47.068;15.408;2023-11-19T09:28:32;8.30;78.20
1996;DHT22;38556;47.068;15.408;2023-11-19T09:33:30;8.70;77.90
1996;DHT22;38556;47.068;15.408;2023-11-19T09:35:57;8.70;77.30
1996;DHT22;38556;47.068;15.408;2023-11-19T09:38:25;8.60;78.70
1996;DHT22;38556;47.068;15.408;2023-11-19T09:40:54;8.30;78.10
1996;DHT22;38556;47.068;15.408;2023-11-19T09:43:21;8.80;78.30
1996;DHT22;38556;47.068;15.408;2023-11-19T09:45:49;9.10;77.00
1996;DHT22;38556;47.068;15.408;2023-11-19T09:48:18;8.80;77.80
1996;DHT22;38556;47.068;15.408;2023-11-19T09:50:47;9.00;77.20
1996;DHT22;38556;47.068;15.408;2023-11-19T09:53:15;8.90;77.10
1996;DHT22;38556;47.068;15.408;2023-11-19T09:55:42;8.60;77.20
1996;DHT22;38556;47.068;15.408;2023-11-19T09:58:12;8.40;78.80
1996;DHT22;38556;47.068;15.408;2023-11-19T10:00:41;8.60;79.40
1996;DHT22;38556;47.068;15.408;2023-11-19T10:03:11;9.10;77.80
1996;DHT22;38556;47.068;15.408;2023-11-19T10:05:39;8.70;78.90
1996;DHT22;38556;47.068;15.408;2023-11-19T10:08:07;8.70;78.70
1996;DHT22;38556;47.068;15.408;2023-11-19T10:10:37;8.80;78.20
1996;DHT22;38556;47.068;15.408;2023-11-19T10:13:04;9.00;78.20
1996;DHT22;38556;47.068;15.408;2023-11-19T10:15:36;9.30;77.30
1996;DHT22;38556;47.068;15.408;2023-11-19T10:18:04;9.40;77.10
1996;DHT22;38556;47.068;15.408;2023-11-19T10:20:35;9.70;76.90
1996;DHT22;38556;47.068;15.408;2023-11-19T10:23:03;9.20;76.60
1996;DHT22;38556;47.068;15.408;2023-11-19T10:25:33;9.20;78.30
1996;DHT22;38556;47.068;15.408;2023-11-19T10:28:00;9.30;77.90
1996;DHT22;38556;47.068;15.408;2023-11-19T10:30:29;9.70;77.10
1996;DHT22;38556;47.068;15.408;2023-11-19T10:33:07;9.70;77.10
1996;DHT22;38556;47.068;15.408;2023-11-19T10:35:37;9.60;76.60
1996;DHT22;38556;47.068;15.408;2023-11-19T10:38:17;9.90;77.00
1996;DHT22;38556;47.068;15.408;2023-11-19T10:40:44;10.10;74.80
1996;DHT22;38556;47.068;15.408;2023-11-19T10:43:12;10.40;74.50
1996;DHT22;38556;47.068;15.408;2023-11-19T10:45:40;10.30;73.30
1996;DHT22;38556;47.068;15.408;2023-11-19T10:48:10;10.40;74.50
1996;DHT22;38556;47.068;15.408;2023-11-19T10:50:40;9.90;75.20
1996;DHT22;38556;47.068;15.408;2023-11-19T10:53:09;9.70;76.40
1996;DHT22;38556;47.068;15.408;2023-11-19T10:55:38;9.20;77.10
1996;DHT22;38556;47.068;15.408;2023-11-19T10:58:06;9.10;77.80
1996;DHT22;38556;47.068;15.408;2023-11-19T11:00:38;9.20;77.80
1996;DHT22;38556;47.068;15.408;2023-11-19T11:03:11;9.50;77.70
1996;DHT22;38556;47.068;15.408;2023-11-19T11:05:41;9.90;76.20
1996;DHT22;38556;47.068;15.408;2023-11-19T11:08:10;9.50;77.00
1996;DHT22;38556;47.068;15.408;2023-11-19T11:10:42;9.70;76.60
1996;DHT22;38556;47.068;15.408;2023-11-19T11:13:10;10.20;74.90
1996;DHT22;38556;47.068;15.408;2023-11-19T11:15:39;10.30;74.20
1996;DHT22;38556;47.068;15.408;2023-11-19T11:18:10;10.00;75.00
1996;DHT22;38556;47.068;15.408;2023-11-19T11:23:25;10.00;75.20
1996;DHT22;38556;47.068;15.408;2023-11-19T11:26:04;10.40;74.60
1996;DHT22;38556;47.068;15.408;2023-11-19T11:28:41;10.40;82.90
1996;DHT22;38556;47.068;15.408;2023-11-19T11:31:19;10.70;79.50
1996;DHT22;38556;47.068;15.408;2023-11-19T11:34:15;10.70;75.60
1996;DHT22;38556;47.068;15.408;2023-11-19T11:36:52;10.60;74.80
1996;DHT22;38556;47.068;15.408;2023-11-19T11:39:22;10.90;74.10
1996;DHT22;38556;47.068;15.408;2023-11-19T11:42:33;10.70;73.90
1996;DHT22;38556;47.068;15.408;2023-11-19T11:45:03;10.80;74.50
1996;DHT22;38556;47.068;15.408;2023-11-19T11:48:08;10.80;72.60
1996;DHT22;38556;47.068;15.408;2023-11-19T11:53:17;11.10;74.50
1996;DHT22;38556;47.068;15.408;2023-11-19T11:55:57;11.30;74.20
1996;DHT22;38556;47.068;15.408;2023-11-19T11:58:31;11.70;73.10
1996;DHT22;38556;47.068;15.408;2023-11-19T12:01:01;12.00;86.00
1996;DHT22;38556;47.068;15.408;2023-11-19T12:03:33;12.20;81.40
1996;DHT22;38556;47.068;15.408;2023-11-19T12:06:03;11.90;73.20
1996;DHT22;38556;47.068;15.408;2023-11-19T12:08:30;11.80;74.70
1996;DHT22;38556;47.068;15.408;2023-11-19T12:10:58;11.80;73.70
1996;DHT22;38556;47.068;15.408;2023-11-19T12:13:46;11.70;74.10
1996;DHT22;38556;47.068;15.408;2023-11-19T12:18:42;11.90;73.00
1996;DHT22;38556;47.068;15.408;2023-11-19T12:21:10;11.90;72.50
1996;DHT22;38556;47.068;15.408;2023-11-19T12:23:45;11.70;73.40
1996;DHT22;38556;47.068;15.408;2023-11-19T12:26:37;12.00;73.10
1996;DHT22;38556;47.068;15.408;2023-11-19T12:29:05;12.30;73.70
1996;DHT22;38556;47.068;15.408;2023-11-19T12:31:34;12.50;71.90
1996;DHT22;38556;47.068;15.408;2023-11-19T12:34:08;12.50;71.90
1996;DHT22;38556;47.068;15.408;2023-11-19T12:36:40;12.10;71.90
1996;DHT22;38556;47.068;15.408;2023-11-19T12:39:11;12.10;72.50
1996;DHT22;38556;47.068;15.408;2023-11-19T12:41:53;12.30;72.60
1996;DHT22;38556;47.068;15.408;2023-11-19T12:44:21;12.20;72.40
1996;DHT22;38556;47.068;15.408;2023-11-19T12:47:04;12.40;73.00
1996;DHT22;38556;47.068;15.408;2023-11-19T12:49:32;12.20;72.00
1996;DHT22;38556;47.068;15.408;2023-11-19T12:52:01;12.30;72.80
1996;DHT22;38556;47.068;15.408;2023-11-19T12:54:33;12.90;71.70
1996;DHT22;38556;47.068;15.408;2023-11-19T12:57:01;12.80;72.00
1996;DHT22;38556;47.068;15.408;2023-11-19T12:59:28;12.80;71.30
1996;DHT22;38556;47.068;15.408;2023-11-19T13:01:56;13.00;70.90
1996;DHT22;38556;47.068;15.408;2023-11-19T13:04:28;13.20;89.80
1996;DHT22;38556;47.068;15.408;2023-11-19T13:06:57;13.40;73.50
1996;DHT22;38556;47.068;15.408;2023-11-19T13:09:26;13.60;73.10
1996;DHT22;38556;47.068;15.408;2023-11-19T13:11:55;13.60;68.90
1996;DHT22;38556;47.068;15.408;2023-11-19T13:14:23;13.60;70.50
1996;DHT22;38556;47.068;15.408;2023-11-19T13:16:50;14.00;69.80
1996;DHT22;38556;47.068;15.408;2023-11-19T13:19:19;14.10;74.70
1996;DHT22;38556;47.068;15.408;2023-11-19T13:21:49;14.90;77.50
1996;DHT22;38556;47.068;15.408;2023-11-19T13:24:17;15.40;80.30
1996;DHT22;38556;47.068;15.408;2023-11-19T13:26:45;15.60;78.10
1996;DHT22;38556;47.068;15.408;2023-11-19T13:29:13;15.80;78.90
1996;DHT22;38556;47.068;15.408;2023-11-19T13:31:40;16.40;72.80
1996;DHT22;38556;47.068;15.408;2023-11-19T13:34:08;16.60;73.40
1996;DHT22;38556;47.068;15.408;2023-11-19T13:36:35;17.00;72.00
1996;DHT22;38556;47.068;15.408;2023-11-19T13:39:02;17.30;70.20
1996;DHT22;38556;47.068;15.408;2023-11-19T13:41:30;17.60;68.30
1996;DHT22;38556;47.068;15.408;2023-11-19T13:43:58;17.60;69.30
1996;DHT22;38556;47.068;15.408;2023-11-19T13:46:26;17.80;68.70
1996;DHT22;38556;47.068;15.408;2023-11-19T13:48:53;17.90;68.20
1996;DHT22;38556;47.068;15.408;2023-11-19T13:51:21;17.90;67.10
1996;DHT22;38556;47.068;15.408;2023-11-19T13:53:48;17.90;67.00
1996;DHT22;38556;47.068;15.408;2023-11-19T13:56:17;18.20;66.70
1996;DHT22;38556;47.068;15.408;2023-11-19T13:58:44;17.60;60.70
1996;DHT22;38556;47.068;15.408;2023-11-19T14:01:13;17.00;62.70
1996;DHT22;38556;47.068;15.408;2023-11-19T14:03:40;16.80;65.90
1996;DHT22;38556;47.068;15.408;2023-11-19T14:08:36;17.10;64.30
1996;DHT22;38556;47.068;15.408;2023-11-19T14:11:03;17.40;63.60
1996;DHT22;38556;47.068;15.408;2023-11-19T14:13:30;17.50;61.30
1996;DHT22;38556;47.068;15.408;2023-11-19T14:15:58;16.60;62.90
1996;DHT22;38556;47.068;15.408;2023-11-19T14:18:29;16.80;63.60
1996;DHT22;38556;47.068;15.408;2023-11-19T14:20:56;17.10;63.80
1996;DHT22;38556;47.068;15.408;2023-11-19T14:23:26;17.10;62.00
1996;DHT22;38556;47.068;15.408;2023-11-19T14:25:53;17.20;63.10
1996;DHT22;38556;47.068;15.408;2023-11-19T14:28:21;18.60;63.40
1996;DHT22;38556;47.068;15.408;2023-11-19T14:33:22;21.00;59.90
1996;DHT22;38556;47.068;15.408;2023-11-19T14:35:51;22.40;56.60
1996;DHT22;38556;47.068;15.408;2023-11-19T14:38:18;24.40;55.10
1996;DHT22;38556;47.068;15.408;2023-11-19T14:40:46;24.40;55.80
1996;DHT22;38556;47.068;15.408;2023-11-19T14:43:14;25.00;55.00
1996;DHT22;38556;47.068;15.408;2023-11-19T14:45:41;25.60;52.50
1996;DHT22;38556;47.068;15.408;2023-11-19T14:48:09;25.90;51.90
1996;DHT22;38556;47.068;15.408;2023-11-19T14:50:36;25.50;52.10
1996;DHT22;38556;47.068;15.408;2023-11-19T14:53:06;24.40;51.00
1996;DHT22;38556;47.068;15.408;2023-11-19T14:55:33;22.80;53.10
1996;DHT22;38556;47.068;15.408;2023-11-19T14:58:00;22.20;53.20
1996;DHT22;38556;47.068;15.408;2023-11-19T15:00:28;21.30;53.50
1996;DHT22;38556;47.068;15.408;2023-11-19T15:02:55;21.10;53.50
1996;DHT22;38556;47.068;15.408;2023-11-19T15:05:22;20.10;54.50
1996;DHT22;38556;47.068;15.408;2023-11-19T15:07:50;19.70;54.80
1996;DHT22;38556;47.068;15.408;2023-11-19T15:10:19;18.80;55.50
1996;DHT22;38556;47.068;15.408;2023-11-19T15:12:47;18.40;56.10
1996;DHT22;38556;47.068;15.408;2023-11-19T15:15:14;18.00;56.00
1996;DHT22;38556;47.068;15.408;2023-11-19T15:17:41;17.30;57.10
1996;DHT22;38556;47.068;15.408;2023-11-19T15:20:10;15.60;60.00
1996;DHT22;38556;47.068;15.408;2023-11-19T15:22:39;15.50;61.10
1996;DHT22;38556;47.068;15.408;2023-11-19T15:25:07;15.70;59.60
1996;DHT22;38556;47.068;15.408;2023-11-19T15:27:38;15.80;59.10
1996;DHT22;38556;47.068;15.408;2023-11-19T15:30:06;15.80;59.10
1996;DHT22;38556;47.068;15.408;2023-11-19T15:32:35;15.50;59.70
1996;DHT22;38556;47.068;15.408;2023-11-19T15:35:03;14.90;60.80
1996;DHT22;38556;47.068;15.408;2023-11-19T15:37:33;14.40;62.30
1996;DHT22;38556;47.068;15.408;2023-11-19T15:42:29;14.20;62.30
1996;DHT22;38556;47.068;15.408;2023-11-19T15:44:58;13.40;65.30
1996;DHT22;38556;47.068;15.408;2023-11-19T15:47:26;13.30;65.80
1996;DHT22;38556;47.068;15.408;2023-11-19T15:49:53;13.00;66.00
1996;DHT22;38556;47.068;15.408;2023-11-19T15:57:17;13.20;65.50
1996;DHT22;38556;47.068;15.408;2023-11-19T15:59:44;13.40;64.60
1996;DHT22;38556;47.068;15.408;2023-11-19T16:02:12;13.40;64.50
1996;DHT22;38556;47.068;15.408;2023-11-19T16:07:07;12.20;67.90
1996;DHT22;38556;47.068;15.408;2023-11-19T16:09:34;12.40;68.10
1996;DHT22;38556;47.068;15.408;2023-11-19T16:12:04;12.50;67.10
1996;DHT22;38556;47.068;15.408;2023-11-19T16:14:31;12.60;66.90
1996;DHT22;38556;47.068;15.408;2023-11-19T16:16:59;12.60;66.60
1996;DHT22;38556;47.068;15.408;2023-11-19T16:19:28;12.60;67.40
1996;DHT22;38556;47.068;15.408;2023-11-19T16:21:55;12.00;69.00
1996;DHT22;38556;47.068;15.408;2023-11-19T16:24:22;11.90;69.20
1996;DHT22;38556;47.068;15.408;2023-11-19T16:26:51;12.10;69.00
1996;DHT22;38556;47.068;15.408;2023-11-19T16:29:18;12.00;69.20
1996;DHT22;38556;47.068;15.408;2023-11-19T16:34:15;11.10;72.00
1996;DHT22;38556;47.068;15.408;2023-11-19T16:36:44;11.00;72.60
1996;DHT22;38556;47.068;15.408;2023-11-19T16:39:12;10.90;72.80
1996;DHT22;38556;47.068;15.408;2023-11-19T16:44:08;11.10;72.20
1996;DHT22;38556;47.068;15.408;2023-11-19T16:46:36;11.30;72.00
1996;DHT22;38556;47.068;15.408;2023-11-19T16:49:03;11.50;71.50
1996;DHT22;38556;47.068;15.408;2023-11-19T16:54:00;11.80;70.50
1996;DHT22;38556;47.068;15.408;2023-11-19T16:56:28;11.80;70.60
1996;DHT22;38556;47.068;15.408;2023-11-19T17:01:26;11.90;70.10
1996;DHT22;38556;47.068;15.408;2023-11-19T17:03:53;11.70;72.50
1996;DHT22;38556;47.068;15.408;2023-11-19T17:11:18;11.80;70.60
1996;DHT22;38556;47.068;15.408;2023-11-19T17:13:47;11.70;71.30
1996;DHT22;38556;47.068;15.408;2023-11-19T17:16:14;11.50;72.20
1996;DHT22;38556;47.068;15.408;2023-11-19T17:18:42;11.00;73.20
1996;DHT22;38556;47.068;15.408;2023-11-19T17:21:09;11.00;73.70
1996;DHT22;38556;47.068;15.408;2023-11-19T17:23:37;10.00;76.00
1996;DHT22;38556;47.068;15.408;2023-11-19T17:26:05;9.20;80.50
1996;DHT22;38556;47.068;15.408;2023-11-19T17:28:34;9.30;80.40
1996;DHT22;38556;47.068;15.408;2023-11-19T17:31:01;9.80;78.70
1996;DHT22;38556;47.068;15.408;2023-11-19T17:35:56;10.20;76.50
1996;DHT22;38556;47.068;15.408;2023-11-19T17:40:53;10.40;74.80
1996;DHT22;38556;47.068;15.408;2023-11-19T17:43:23;10.70;74.80
1996;DHT22;38556;47.068;15.408;2023-11-19T17:45:52;9.80;78.20
1996;DHT22;38556;47.068;15.408;2023-11-19T17:48:23;9.20;81.20